createdAt,value
2023-05-02T00:01:55.281Z,8.85
2023-05-02T00:04:41.286Z,7.47
2023-05-02T00:07:26.808Z,10.55
2023-05-02T00:10:12.461Z,8.48
2023-05-02T00:12:57.853Z,8.45
2023-05-02T00:15:43.246Z,8.68
2023-05-02T00:18:28.750Z,8.85
2023-05-02T00:21:14.144Z,9.35
2023-05-02T00:24:00.125Z,7.75
2023-05-02T00:26:46.197Z,10.55
2023-05-02T00:29:31.681Z,9.40
2023-05-02T00:32:17.130Z,8.57
2023-05-02T00:35:02.242Z,10.70
2023-05-02T00:37:47.649Z,9.23
2023-05-02T00:40:43.736Z,10.18
2023-05-02T00:43:31.444Z,9.02
2023-05-02T00:46:16.897Z,9.43
2023-05-02T00:49:02.106Z,8.35
2023-05-02T00:51:47.773Z,10.25
2023-05-02T00:54:33.183Z,9.10
2023-05-02T00:57:18.418Z,8.88
2023-05-02T01:00:05.078Z,9.75
2023-05-02T01:03:09.492Z,8.52
2023-05-02T01:06:17.806Z,7.22
2023-05-02T01:09:22.127Z,8.68
2023-05-02T01:12:27.991Z,9.20
2023-05-02T01:15:18.360Z,11.20
2023-05-02T01:18:05.650Z,9.60
2023-05-02T01:21:00.538Z,10.48
2023-05-02T01:23:57.498Z,12.43
2023-05-02T01:27:11.561Z,12.35
2023-05-02T01:29:59.237Z,9.70
2023-05-02T01:32:48.486Z,11.40
2023-05-02T01:35:35.639Z,10.32
2023-05-02T01:38:22.758Z,10.30
2023-05-02T01:41:09.003Z,9.63
2023-05-02T01:43:57.745Z,14.02
2023-05-02T01:46:44.569Z,11.65
2023-05-02T01:49:31.796Z,11.52
2023-05-02T01:52:21.703Z,10.10
2023-05-02T01:55:12.135Z,8.50
2023-05-02T01:57:57.849Z,10.13
2023-05-02T02:00:45.544Z,8.88
2023-05-02T02:03:32.059Z,10.75
2023-05-02T02:06:19.176Z,11.63
2023-05-02T02:09:04.914Z,11.27
2023-05-02T02:11:57.533Z,8.98
2023-05-02T02:14:49.815Z,12.90
2023-05-02T02:17:43.247Z,14.93
2023-05-02T02:20:30.081Z,10.55
2023-05-02T02:23:16.501Z,10.68
2023-05-02T02:26:04.187Z,11.52
2023-05-02T02:28:49.501Z,10.30
2023-05-02T02:31:36.019Z,10.45
2023-05-02T02:34:22.113Z,10.35
2023-05-02T02:37:23.491Z,8.68
2023-05-02T02:40:16.604Z,9.48
2023-05-02T02:43:32.474Z,10.77
2023-05-02T02:46:45.119Z,10.35
2023-05-02T02:49:34.470Z,12.43
2023-05-02T02:52:42.107Z,10.40
2023-05-02T02:55:55.776Z,11.75
2023-05-02T02:59:18.634Z,10.63
2023-05-02T03:02:09.280Z,10.48
2023-05-02T03:04:56.140Z,12.32
2023-05-02T03:07:42.034Z,10.45
2023-05-02T03:10:27.197Z,11.05
2023-05-02T03:13:12.648Z,9.85
2023-05-02T03:16:29.112Z,10.95
2023-05-02T03:19:14.586Z,11.52
2023-05-02T03:22:00.236Z,12.10
2023-05-02T03:24:45.394Z,12.77
2023-05-02T03:27:31.915Z,9.75
2023-05-02T03:30:17.226Z,10.88
2023-05-02T03:33:04.749Z,9.68
2023-05-02T03:35:50.002Z,10.02
2023-05-02T03:38:35.634Z,9.05
2023-05-02T03:41:21.240Z,9.75
2023-05-02T03:44:06.639Z,11.30
2023-05-02T03:46:51.840Z,11.38
2023-05-02T03:49:38.047Z,9.40
2023-05-02T03:52:23.586Z,10.45
2023-05-02T03:55:09.115Z,12.63
2023-05-02T03:57:54.429Z,8.68
2023-05-02T04:00:39.992Z,12.70
2023-05-02T04:03:27.141Z,10.05
2023-05-02T04:06:14.096Z,8.98
2023-05-02T04:08:59.594Z,12.45
2023-05-02T04:11:44.760Z,11.52
2023-05-02T04:14:30.756Z,11.75
2023-05-02T04:17:16.088Z,11.18
2023-05-02T04:20:04.713Z,10.20
2023-05-02T04:22:50.748Z,10.80
2023-05-02T04:25:36.113Z,11.38
2023-05-02T04:28:22.158Z,12.75
2023-05-02T04:31:07.495Z,14.85
2023-05-02T04:33:52.792Z,12.50
2023-05-02T04:36:38.662Z,12.70
2023-05-02T04:39:23.668Z,11.20
2023-05-02T04:42:09.230Z,11.75
2023-05-02T04:44:54.727Z,11.40
2023-05-02T04:47:40.171Z,15.05
2023-05-02T04:50:25.993Z,12.68
2023-05-02T04:53:11.255Z,12.38
2023-05-02T04:55:57.066Z,6.85
2023-05-02T04:58:42.459Z,7.22
2023-05-02T05:01:28.207Z,8.98
2023-05-02T05:04:13.821Z,11.68
2023-05-02T05:06:59.669Z,8.57
2023-05-02T05:09:44.906Z,10.30
2023-05-02T05:12:30.309Z,11.98
2023-05-02T05:15:16.878Z,9.68
2023-05-02T05:18:02.480Z,11.60
2023-05-02T05:20:47.816Z,9.98
2023-05-02T05:23:34.217Z,9.18
2023-05-02T05:26:20.995Z,9.45
2023-05-02T05:29:05.909Z,10.50
2023-05-02T05:31:51.244Z,12.45
2023-05-02T05:34:37.633Z,11.68
2023-05-02T05:37:23.008Z,11.48
2023-05-02T05:40:09.237Z,9.40
2023-05-02T05:42:54.321Z,13.63
2023-05-02T05:45:39.785Z,11.32
2023-05-02T05:48:25.452Z,11.65
2023-05-02T05:51:10.716Z,13.48
2023-05-02T05:53:56.183Z,10.00
2023-05-02T05:56:41.457Z,14.35
2023-05-02T05:59:27.490Z,10.57
2023-05-02T06:02:13.017Z,12.82
2023-05-02T06:04:58.058Z,10.95
2023-05-02T06:07:43.444Z,10.35
2023-05-02T06:10:28.806Z,13.18
2023-05-02T06:13:14.088Z,14.23
2023-05-02T06:16:02.948Z,16.75
2023-05-02T06:18:51.651Z,16.83
2023-05-02T06:21:37.909Z,14.18
2023-05-02T06:24:23.156Z,15.40
2023-05-02T06:27:08.669Z,15.77
2023-05-02T06:29:54.304Z,15.30
2023-05-02T06:32:39.670Z,15.55
2023-05-02T06:35:25.004Z,12.27
2023-05-02T06:38:10.489Z,10.68
2023-05-02T06:40:56.355Z,12.98
2023-05-02T06:43:41.989Z,12.68
2023-05-02T06:46:30.249Z,10.73
2023-05-02T06:49:15.350Z,16.27
2023-05-02T06:52:00.878Z,12.85
2023-05-02T06:54:46.227Z,12.55
2023-05-02T06:57:31.753Z,13.13
2023-05-02T07:00:18.139Z,12.68
2023-05-02T07:03:03.835Z,10.80
2023-05-02T07:05:49.179Z,14.40
2023-05-02T07:08:34.488Z,14.80
2023-05-02T07:11:21.719Z,11.15
2023-05-02T07:14:07.279Z,19.38
2023-05-02T07:16:53.689Z,21.58
2023-05-02T07:19:39.140Z,20.20
2023-05-02T07:22:24.435Z,15.10
2023-05-02T07:25:10.317Z,15.05
2023-05-02T07:27:55.486Z,12.23
2023-05-02T07:30:40.857Z,13.43
2023-05-02T07:33:26.390Z,14.18
2023-05-02T07:36:11.777Z,15.27
2023-05-02T07:38:57.265Z,11.23
2023-05-02T07:41:42.914Z,12.80
2023-05-02T07:44:28.318Z,11.73
2023-05-02T07:47:13.759Z,13.60
2023-05-02T07:49:59.424Z,13.75
2023-05-02T07:52:45.156Z,12.73
2023-05-02T07:55:33.146Z,16.80
2023-05-02T07:58:18.643Z,12.20
2023-05-02T08:01:04.124Z,14.05
2023-05-02T08:03:49.791Z,13.60
2023-05-02T08:06:35.743Z,14.25
2023-05-02T08:09:21.351Z,12.85
2023-05-02T08:12:06.986Z,14.30
2023-05-02T08:14:52.440Z,12.90
2023-05-02T08:17:37.957Z,10.73
2023-05-02T08:20:23.575Z,12.55
2023-05-02T08:23:08.787Z,12.40
2023-05-02T08:25:54.486Z,12.13
2023-05-02T08:28:39.657Z,12.75
2023-05-02T08:31:25.074Z,12.63
2023-05-02T08:34:10.522Z,13.52
2023-05-02T08:36:58.268Z,13.98
2023-05-02T08:39:43.888Z,14.02
2023-05-02T08:42:32.423Z,16.25
2023-05-02T08:45:18.970Z,12.95
2023-05-02T08:48:10.338Z,14.45
2023-05-02T08:50:56.195Z,15.13
2023-05-02T08:53:42.387Z,13.25
2023-05-02T08:56:27.656Z,14.52
2023-05-02T08:59:12.989Z,13.32
2023-05-02T09:02:10.376Z,11.57
2023-05-02T09:04:59.445Z,13.05
2023-05-02T09:07:47.322Z,16.23
2023-05-02T09:10:36.496Z,14.80
2023-05-02T09:13:29.364Z,14.55
2023-05-02T09:19:11.166Z,12.45
2023-05-02T09:22:03.638Z,12.13
2023-05-02T09:27:56.314Z,15.07
2023-05-02T09:30:41.686Z,12.07
2023-05-02T09:33:27.893Z,11.73
2023-05-02T09:36:15.252Z,14.05
2023-05-02T09:39:10.683Z,14.95
2023-05-02T09:41:56.617Z,10.35
2023-05-02T09:44:43.043Z,12.82
2023-05-02T09:47:28.526Z,13.40
2023-05-02T09:50:36.236Z,12.68
2023-05-02T09:53:22.036Z,12.82
2023-05-02T09:56:08.127Z,12.57
2023-05-02T09:59:13.680Z,13.20
2023-05-02T10:02:01.126Z,10.77
2023-05-02T10:04:48.978Z,13.45
2023-05-02T10:07:34.944Z,13.15
2023-05-02T10:10:20.474Z,10.32
2023-05-02T10:13:06.792Z,13.07
2023-05-02T10:15:59.544Z,13.35
2023-05-02T10:21:48.033Z,12.75
2023-05-02T10:24:33.732Z,11.93
2023-05-02T10:27:19.519Z,10.77
2023-05-02T10:30:06.477Z,9.48
2023-05-02T10:32:53.642Z,9.65
2023-05-02T10:35:43.665Z,8.93
2023-05-02T10:38:29.521Z,8.27
2023-05-02T10:41:19.182Z,7.28
2023-05-02T10:44:07.800Z,8.60
2023-05-02T10:46:53.892Z,10.13
2023-05-02T10:49:56.831Z,8.35
2023-05-02T10:55:27.154Z,9.65
2023-05-02T10:58:22.335Z,9.38
2023-05-02T11:01:29.311Z,8.63
2023-05-02T11:04:14.817Z,7.20
2023-05-02T11:07:17.170Z,7.35
2023-05-02T11:10:17.858Z,7.82
2023-05-02T11:13:03.294Z,7.15
2023-05-02T11:15:51.595Z,8.00
2023-05-02T11:18:59.377Z,7.80
2023-05-02T11:21:44.494Z,8.48
2023-05-02T11:24:40.555Z,6.50
2023-05-02T11:27:32.042Z,7.82
2023-05-02T11:30:37.635Z,7.00
2023-05-02T11:33:23.438Z,6.10
2023-05-02T11:36:08.826Z,7.47
2023-05-02T11:38:54.293Z,7.93
2023-05-02T11:41:43.356Z,7.13
2023-05-02T11:44:28.479Z,6.38
2023-05-02T11:47:13.916Z,4.70
2023-05-02T11:50:02.110Z,7.88
2023-05-02T11:52:47.456Z,5.85
2023-05-02T11:55:32.863Z,7.97
2023-05-02T11:58:23.516Z,4.75
2023-05-02T12:01:16.339Z,5.20
2023-05-02T12:04:10.488Z,7.63
2023-05-02T12:06:57.267Z,5.55
2023-05-02T12:09:53.493Z,6.18
2023-05-02T12:12:40.955Z,8.60
2023-05-02T12:15:26.672Z,6.03
2023-05-02T12:18:13.577Z,5.88
2023-05-02T12:20:58.766Z,5.55
2023-05-02T12:23:44.531Z,4.70
2023-05-02T12:26:33.055Z,6.10
2023-05-02T12:29:18.789Z,5.03
2023-05-02T12:32:04.574Z,7.15
2023-05-02T12:34:50.068Z,5.10
2023-05-02T12:37:35.775Z,4.85
2023-05-02T12:40:21.081Z,8.95
2023-05-02T12:43:10.376Z,5.65
2023-05-02T12:46:11.208Z,7.38
2023-05-02T12:49:05.772Z,10.13
2023-05-02T12:52:02.496Z,6.20
2023-05-02T12:54:48.501Z,7.90
2023-05-02T12:57:34.234Z,7.28
2023-05-02T13:00:20.151Z,7.28
2023-05-02T13:03:06.886Z,9.35
2023-05-02T13:05:55.443Z,7.15
2023-05-02T13:08:40.438Z,9.60
2023-05-02T13:11:25.803Z,7.72
2023-05-02T13:14:11.548Z,9.10
2023-05-02T13:16:57.472Z,7.20
2023-05-02T13:20:01.081Z,8.57
2023-05-02T13:22:47.549Z,11.23
2023-05-02T13:25:33.016Z,9.35
2023-05-02T13:28:19.031Z,8.07
2023-05-02T13:31:04.552Z,6.20
2023-05-02T13:33:49.905Z,7.43
2023-05-02T13:36:36.349Z,8.40
2023-05-02T13:39:21.982Z,7.65
2023-05-02T13:42:07.967Z,8.00
2023-05-02T13:44:52.893Z,5.72
2023-05-02T13:47:39.441Z,7.57
2023-05-02T13:50:25.288Z,6.03
2023-05-02T13:53:11.246Z,4.07
2023-05-02T13:55:57.696Z,3.42
2023-05-02T13:58:43.044Z,4.55
2023-05-02T14:01:28.662Z,3.13
2023-05-02T14:04:14.371Z,2.88
2023-05-02T14:06:59.585Z,3.55
2023-05-02T14:09:45.085Z,3.88
2023-05-02T14:12:31.592Z,2.25
2023-05-02T14:15:16.837Z,3.33
2023-05-02T14:18:02.353Z,3.60
2023-05-02T14:20:47.575Z,3.90
2023-05-02T14:23:33.506Z,2.00
2023-05-02T14:26:20.366Z,4.50
2023-05-02T14:29:05.738Z,3.53
2023-05-02T14:31:51.166Z,2.92
2023-05-02T14:34:36.298Z,1.90
2023-05-02T14:37:21.787Z,2.28
2023-05-02T14:40:07.964Z,2.63
2023-05-02T14:42:53.039Z,3.80
2023-05-02T14:45:38.580Z,3.55
2023-05-02T14:48:23.932Z,4.72
2023-05-02T14:51:09.404Z,3.67
2023-05-02T14:53:54.702Z,4.95
2023-05-02T14:56:40.189Z,2.40
2023-05-02T14:59:29.142Z,3.70
2023-05-02T15:02:14.449Z,4.63
2023-05-02T15:05:00.259Z,5.18
2023-05-02T15:07:45.481Z,5.43
2023-05-02T15:10:30.794Z,3.53
2023-05-02T15:13:16.160Z,3.38
2023-05-02T15:16:01.550Z,5.50
2023-05-02T15:18:47.070Z,4.90
2023-05-02T15:21:32.786Z,5.20
2023-05-02T15:24:17.824Z,2.80
2023-05-02T15:27:03.684Z,3.17
2023-05-02T15:29:49.118Z,4.85
2023-05-02T15:32:34.747Z,2.95
2023-05-02T15:35:20.237Z,3.90
2023-05-02T15:38:06.577Z,3.28
2023-05-02T15:40:59.397Z,3.13
2023-05-02T15:43:44.904Z,4.18
2023-05-02T15:46:30.251Z,3.50
2023-05-02T15:49:15.856Z,5.20
2023-05-02T15:52:00.991Z,4.20
2023-05-02T15:54:46.891Z,5.00
2023-05-02T15:57:32.356Z,4.88
2023-05-02T16:00:17.967Z,5.75
2023-05-02T16:03:04.122Z,5.72
2023-05-02T16:05:52.746Z,4.10
2023-05-02T16:08:38.214Z,3.97
2023-05-02T16:11:23.594Z,2.85
2023-05-02T16:14:09.318Z,2.95
2023-05-02T16:16:56.020Z,3.33
2023-05-02T16:19:41.376Z,3.00
2023-05-02T16:22:28.214Z,3.25
2023-05-02T16:25:15.016Z,4.80
2023-05-02T16:28:01.009Z,3.85
2023-05-02T16:30:46.323Z,4.50
2023-05-02T16:33:31.624Z,6.75
2023-05-02T16:36:17.127Z,4.35
2023-05-02T16:39:02.350Z,4.35
2023-05-02T16:41:49.245Z,4.05
2023-05-02T16:44:34.697Z,3.92
2023-05-02T16:47:19.956Z,5.03
2023-05-02T16:50:06.215Z,4.72
2023-05-02T16:52:51.925Z,4.97
2023-05-02T16:55:37.250Z,3.92
2023-05-02T16:58:24.643Z,5.00
2023-05-02T17:01:10.304Z,7.25
2023-05-02T17:03:55.690Z,5.30
2023-05-02T17:06:41.242Z,6.85
2023-05-02T17:09:26.840Z,6.20
2023-05-02T17:12:12.783Z,9.27
2023-05-02T17:14:58.590Z,7.05
2023-05-02T17:17:44.246Z,8.38
2023-05-02T17:20:29.257Z,6.47
2023-05-02T17:23:14.679Z,5.38
2023-05-02T17:26:00.541Z,5.55
2023-05-02T17:28:46.103Z,7.97
2023-05-02T17:31:31.230Z,3.78
2023-05-02T17:34:16.568Z,5.63
2023-05-02T17:37:02.254Z,5.68
2023-05-02T17:39:47.897Z,3.72
2023-05-02T17:42:33.108Z,5.97
2023-05-02T17:45:18.556Z,3.90
2023-05-02T17:48:04.300Z,3.55
2023-05-02T17:50:50.947Z,3.95
2023-05-02T17:53:36.644Z,3.03
2023-05-02T17:56:22.396Z,3.95
2023-05-02T17:59:08.017Z,2.80
2023-05-02T18:01:53.554Z,3.22
2023-05-02T18:04:38.883Z,4.38
2023-05-02T18:07:24.340Z,4.30
2023-05-02T18:10:09.917Z,4.30
2023-05-02T18:12:55.426Z,4.75
2023-05-02T18:15:41.297Z,3.58
2023-05-02T18:18:26.484Z,4.53
2023-05-02T18:21:11.969Z,4.68
2023-05-02T18:23:57.566Z,8.70
2023-05-02T18:26:42.945Z,3.60
2023-05-02T18:29:28.219Z,3.53
2023-05-02T18:32:14.455Z,4.75
2023-05-02T18:35:00.452Z,4.68
2023-05-02T18:37:46.433Z,3.60
2023-05-02T18:40:32.364Z,3.00
2023-05-02T18:43:17.628Z,4.47
2023-05-02T18:46:03.271Z,4.13
2023-05-02T18:48:48.872Z,4.10
2023-05-02T18:51:33.979Z,4.53
2023-05-02T18:54:19.692Z,4.25
2023-05-02T18:57:05.063Z,4.68
2023-05-02T18:59:50.301Z,5.57
2023-05-02T19:02:35.690Z,9.48
2023-05-02T19:05:21.198Z,6.60
2023-05-02T19:08:07.640Z,6.75
2023-05-02T19:10:52.782Z,8.55
2023-05-02T19:13:38.712Z,7.88
2023-05-02T19:16:25.640Z,5.28
2023-05-02T19:19:10.886Z,6.20
2023-05-02T19:21:56.573Z,8.20
2023-05-02T19:24:41.444Z,6.75
2023-05-02T19:27:27.057Z,7.55
2023-05-02T19:30:13.640Z,5.38
2023-05-02T19:32:59.662Z,10.85
2023-05-02T19:35:45.205Z,8.20
2023-05-02T19:38:30.615Z,9.77
2023-05-02T19:41:17.155Z,7.70
2023-05-02T19:44:02.594Z,7.05
2023-05-02T19:46:48.273Z,7.38
2023-05-02T19:49:33.610Z,8.20
2023-05-02T19:52:19.046Z,8.23
2023-05-02T19:55:05.277Z,7.20
2023-05-02T19:57:50.346Z,8.45
2023-05-02T20:00:36.011Z,9.00
2023-05-02T20:03:22.283Z,7.97
2023-05-02T20:06:07.844Z,10.18
2023-05-02T20:08:53.209Z,10.15
2023-05-02T20:11:38.774Z,9.60
2023-05-02T20:14:24.097Z,7.50
2023-05-02T20:17:09.508Z,10.55
2023-05-02T20:19:54.793Z,8.48
2023-05-02T20:22:40.549Z,6.35
2023-05-02T20:25:25.820Z,9.68
2023-05-02T20:28:11.243Z,10.82
2023-05-02T20:30:56.478Z,7.35
2023-05-02T20:33:45.807Z,7.43
2023-05-02T20:36:32.246Z,10.55
2023-05-02T20:39:20.780Z,6.63
2023-05-02T20:42:06.118Z,9.18
2023-05-02T20:44:58.465Z,11.68
2023-05-02T20:47:43.766Z,8.52
2023-05-02T20:50:29.243Z,6.97
2023-05-02T20:53:14.485Z,10.13
2023-05-02T20:56:00.154Z,8.82
2023-05-02T20:58:45.479Z,12.20
2023-05-02T21:01:30.916Z,9.82
2023-05-02T21:04:16.603Z,8.48
2023-05-02T21:07:03.095Z,12.52
2023-05-02T21:09:48.668Z,13.18
2023-05-02T21:12:33.901Z,11.25
2023-05-02T21:15:19.321Z,15.15
2023-05-02T21:18:05.270Z,12.68
2023-05-02T21:20:50.746Z,12.55
2023-05-02T21:23:36.329Z,12.52
2023-05-02T21:26:21.504Z,16.08
2023-05-02T21:29:07.339Z,16.67
2023-05-02T21:31:54.681Z,16.15
2023-05-02T21:34:40.297Z,15.30
2023-05-02T21:37:26.018Z,13.57
2023-05-02T21:40:11.960Z,17.23
2023-05-02T21:42:57.250Z,17.63
2023-05-02T21:45:50.122Z,17.73
2023-05-02T21:51:20.551Z,17.17
2023-05-02T21:54:07.291Z,15.30
2023-05-02T21:56:55.812Z,20.58
2023-05-02T21:59:43.108Z,15.40
2023-05-02T22:02:28.627Z,16.55
2023-05-02T22:05:14.304Z,15.68
2023-05-02T22:08:00.730Z,14.68
2023-05-02T22:10:46.000Z,15.95
2023-05-02T22:13:31.478Z,12.43
2023-05-02T22:16:17.220Z,13.95
2023-05-02T22:19:02.357Z,11.77
2023-05-02T22:21:47.695Z,11.63
2023-05-02T22:24:33.564Z,18.17
2023-05-02T22:27:19.126Z,11.25
2023-05-02T22:30:05.393Z,8.52
2023-05-02T22:32:50.473Z,8.80
2023-05-02T22:35:39.132Z,9.82
2023-05-02T22:38:24.184Z,15.35
2023-05-02T22:41:09.851Z,8.45
2023-05-02T22:43:54.952Z,12.73
2023-05-02T22:46:40.477Z,13.23
2023-05-02T22:49:28.436Z,11.90
2023-05-02T22:52:14.347Z,12.77
2023-05-02T22:55:00.347Z,11.13
2023-05-02T22:57:45.884Z,10.48
2023-05-02T23:00:31.167Z,14.80
2023-05-02T23:03:16.783Z,18.02
2023-05-02T23:06:02.059Z,8.93
2023-05-02T23:08:47.346Z,10.27
2023-05-02T23:11:32.539Z,11.27
2023-05-02T23:14:20.570Z,12.80
2023-05-02T23:17:05.940Z,12.32
2023-05-02T23:19:51.283Z,16.42
2023-05-02T23:22:39.466Z,13.85
2023-05-02T23:25:27.307Z,11.38
2023-05-02T23:28:12.834Z,14.80
2023-05-02T23:30:58.482Z,11.35
2023-05-02T23:33:43.946Z,10.75
2023-05-02T23:36:29.142Z,10.68
2023-05-02T23:39:14.679Z,14.88
2023-05-02T23:42:00.728Z,13.32
2023-05-02T23:44:47.053Z,12.80
2023-05-02T23:47:32.133Z,12.45
2023-05-02T23:50:18.312Z,10.68
2023-05-02T23:53:03.396Z,17.65
2023-05-02T23:55:48.730Z,15.07
2023-05-02T23:58:34.145Z,13.55
